sensor_id;sensor_type;location;lat;lon;timestamp;P1;durP1;ratioP1;P2;durP2;ratioP2
15876;SDS011;8037;51.666;7.834;2023-07-20T00:00:51;6.00;;;3.07;;
15876;SDS011;8037;51.666;7.834;2023-07-20T00:03:18;6.40;;;2.80;;
15876;SDS011;8037;51.666;7.834;2023-07-20T00:05:48;6.23;;;2.70;;
15876;SDS011;8037;51.666;7.834;2023-07-20T00:08:14;2.83;;;2.60;;
15876;SDS011;8037;51.666;7.834;2023-07-20T00:10:40;2.63;;;2.30;;
15876;SDS011;8037;51.666;7.834;2023-07-20T00:13:06;5.33;;;2.43;;
15876;SDS011;8037;51.666;7.834;2023-07-20T00:15:32;2.73;;;2.30;;
15876;SDS011;8037;51.666;7.834;2023-07-20T00:17:58;2.43;;;2.23;;
15876;SDS011;8037;51.666;7.834;2023-07-20T00:20:24;4.40;;;3.37;;
15876;SDS011;8037;51.666;7.834;2023-07-20T00:22:50;2.57;;;2.37;;
15876;SDS011;8037;51.666;7.834;2023-07-20T00:25:16;3.00;;;2.80;;
15876;SDS011;8037;51.666;7.834;2023-07-20T00:27:43;9.13;;;2.70;;
15876;SDS011;8037;51.666;7.834;2023-07-20T00:30:09;7.93;;;2.80;;
15876;SDS011;8037;51.666;7.834;2023-07-20T00:32:35;11.90;;;3.33;;
15876;SDS011;8037;51.666;7.834;2023-07-20T00:35:01;4.97;;;3.60;;
15876;SDS011;8037;51.666;7.834;2023-07-20T00:37:27;4.53;;;3.00;;
15876;SDS011;8037;51.666;7.834;2023-07-20T00:39:53;3.53;;;3.23;;
15876;SDS011;8037;51.666;7.834;2023-07-20T00:42:19;2.80;;;2.70;;
15876;SDS011;8037;51.666;7.834;2023-07-20T00:44:45;8.40;;;2.90;;
15876;SDS011;8037;51.666;7.834;2023-07-20T00:47:11;5.63;;;4.03;;
15876;SDS011;8037;51.666;7.834;2023-07-20T00:49:37;3.17;;;2.90;;
15876;SDS011;8037;51.666;7.834;2023-07-20T00:52:03;3.80;;;3.50;;
15876;SDS011;8037;51.666;7.834;2023-07-20T00:54:31;3.30;;;3.00;;
15876;SDS011;8037;51.666;7.834;2023-07-20T00:56:57;9.43;;;3.27;;
15876;SDS011;8037;51.666;7.834;2023-07-20T00:59:25;3.63;;;3.30;;
15876;SDS011;8037;51.666;7.834;2023-07-20T01:01:51;3.50;;;3.20;;
15876;SDS011;8037;51.666;7.834;2023-07-20T01:04:17;4.33;;;3.03;;
15876;SDS011;8037;51.666;7.834;2023-07-20T01:06:54;6.10;;;3.57;;
15876;SDS011;8037;51.666;7.834;2023-07-20T01:09:26;3.33;;;2.70;;
15876;SDS011;8037;51.666;7.834;2023-07-20T01:14:24;4.10;;;3.70;;
15876;SDS011;8037;51.666;7.834;2023-07-20T01:16:51;4.10;;;3.70;;
15876;SDS011;8037;51.666;7.834;2023-07-20T01:19:17;6.10;;;4.30;;
15876;SDS011;8037;51.666;7.834;2023-07-20T01:31:36;3.77;;;3.47;;
15876;SDS011;8037;51.666;7.834;2023-07-20T01:34:03;3.87;;;3.53;;
15876;SDS011;8037;51.666;7.834;2023-07-20T01:36:33;3.83;;;3.60;;
15876;SDS011;8037;51.666;7.834;2023-07-20T01:38:59;5.37;;;3.57;;
15876;SDS011;8037;51.666;7.834;2023-07-20T01:41:25;5.33;;;3.60;;
15876;SDS011;8037;51.666;7.834;2023-07-20T01:43:51;7.10;;;3.70;;
15876;SDS011;8037;51.666;7.834;2023-07-20T01:46:17;4.90;;;3.53;;
15876;SDS011;8037;51.666;7.834;2023-07-20T01:48:43;5.30;;;3.40;;
15876;SDS011;8037;51.666;7.834;2023-07-20T01:51:09;4.43;;;3.60;;
15876;SDS011;8037;51.666;7.834;2023-07-20T01:53:37;5.93;;;3.87;;
15876;SDS011;8037;51.666;7.834;2023-07-20T01:56:03;6.30;;;4.13;;
15876;SDS011;8037;51.666;7.834;2023-07-20T01:58:29;5.80;;;4.20;;
15876;SDS011;8037;51.666;7.834;2023-07-20T02:00:54;5.77;;;4.20;;
15876;SDS011;8037;51.666;7.834;2023-07-20T02:03:20;4.87;;;4.40;;
15876;SDS011;8037;51.666;7.834;2023-07-20T02:05:47;4.63;;;4.10;;
15876;SDS011;8037;51.666;7.834;2023-07-20T02:08:12;8.93;;;4.60;;
15876;SDS011;8037;51.666;7.834;2023-07-20T02:10:38;4.20;;;3.90;;
15876;SDS011;8037;51.666;7.834;2023-07-20T02:13:04;4.43;;;4.03;;
15876;SDS011;8037;51.666;7.834;2023-07-20T02:15:30;10.53;;;3.83;;
15876;SDS011;8037;51.666;7.834;2023-07-20T02:17:55;4.17;;;3.77;;
15876;SDS011;8037;51.666;7.834;2023-07-20T02:20:21;4.83;;;3.80;;
15876;SDS011;8037;51.666;7.834;2023-07-20T02:22:47;4.57;;;4.17;;
15876;SDS011;8037;51.666;7.834;2023-07-20T02:25:13;5.30;;;4.13;;
15876;SDS011;8037;51.666;7.834;2023-07-20T02:27:38;4.00;;;3.63;;
15876;SDS011;8037;51.666;7.834;2023-07-20T02:30:05;4.43;;;3.97;;
15876;SDS011;8037;51.666;7.834;2023-07-20T02:32:31;4.30;;;3.90;;
15876;SDS011;8037;51.666;7.834;2023-07-20T02:34:58;7.20;;;4.40;;
15876;SDS011;8037;51.666;7.834;2023-07-20T02:37:24;5.73;;;4.00;;
15876;SDS011;8037;51.666;7.834;2023-07-20T02:39:50;4.80;;;4.40;;
15876;SDS011;8037;51.666;7.834;2023-07-20T02:42:16;12.77;;;4.50;;
15876;SDS011;8037;51.666;7.834;2023-07-20T02:44:42;12.33;;;4.47;;
15876;SDS011;8037;51.666;7.834;2023-07-20T02:47:08;6.03;;;4.97;;
15876;SDS011;8037;51.666;7.834;2023-07-20T02:49:34;5.10;;;4.40;;
15876;SDS011;8037;51.666;7.834;2023-07-20T02:52:00;5.47;;;4.87;;
15876;SDS011;8037;51.666;7.834;2023-07-20T02:54:29;6.17;;;4.47;;
15876;SDS011;8037;51.666;7.834;2023-07-20T02:56:55;7.17;;;4.10;;
15876;SDS011;8037;51.666;7.834;2023-07-20T02:59:21;8.40;;;4.43;;
15876;SDS011;8037;51.666;7.834;2023-07-20T03:01:47;7.60;;;4.10;;
15876;SDS011;8037;51.666;7.834;2023-07-20T03:04:13;4.93;;;4.20;;
15876;SDS011;8037;51.666;7.834;2023-07-20T03:06:41;4.93;;;3.80;;
15876;SDS011;8037;51.666;7.834;2023-07-20T03:09:07;8.20;;;4.80;;
15876;SDS011;8037;51.666;7.834;2023-07-20T03:11:34;5.70;;;3.70;;
15876;SDS011;8037;51.666;7.834;2023-07-20T03:14:00;6.10;;;5.13;;
15876;SDS011;8037;51.666;7.834;2023-07-20T03:16:25;9.97;;;4.50;;
15876;SDS011;8037;51.666;7.834;2023-07-20T03:18:51;6.80;;;4.23;;
15876;SDS011;8037;51.666;7.834;2023-07-20T03:21:17;6.60;;;4.00;;
15876;SDS011;8037;51.666;7.834;2023-07-20T03:23:43;9.40;;;4.90;;
15876;SDS011;8037;51.666;7.834;2023-07-20T03:26:09;23.27;;;5.50;;
15876;SDS011;8037;51.666;7.834;2023-07-20T03:28:36;5.80;;;4.27;;
15876;SDS011;8037;51.666;7.834;2023-07-20T03:31:03;6.10;;;5.07;;
15876;SDS011;8037;51.666;7.834;2023-07-20T03:33:29;7.63;;;5.33;;
15876;SDS011;8037;51.666;7.834;2023-07-20T03:35:55;7.17;;;4.43;;
15876;SDS011;8037;51.666;7.834;2023-07-20T03:38:22;8.53;;;4.63;;
15876;SDS011;8037;51.666;7.834;2023-07-20T03:40:49;4.70;;;4.20;;
15876;SDS011;8037;51.666;7.834;2023-07-20T03:43:16;9.00;;;4.60;;
15876;SDS011;8037;51.666;7.834;2023-07-20T03:45:42;5.30;;;4.73;;
15876;SDS011;8037;51.666;7.834;2023-07-20T03:48:08;5.07;;;4.57;;
15876;SDS011;8037;51.666;7.834;2023-07-20T03:50:34;7.93;;;4.67;;
15876;SDS011;8037;51.666;7.834;2023-07-20T03:53:01;9.87;;;5.60;;
15876;SDS011;8037;51.666;7.834;2023-07-20T03:55:26;5.00;;;4.50;;
15876;SDS011;8037;51.666;7.834;2023-07-20T03:57:53;6.47;;;4.27;;
15876;SDS011;8037;51.666;7.834;2023-07-20T04:00:19;9.40;;;4.30;;
15876;SDS011;8037;51.666;7.834;2023-07-20T04:02:46;5.87;;;4.80;;
15876;SDS011;8037;51.666;7.834;2023-07-20T04:05:12;5.30;;;4.50;;
15876;SDS011;8037;51.666;7.834;2023-07-20T04:07:38;4.30;;;3.90;;
15876;SDS011;8037;51.666;7.834;2023-07-20T04:10:04;7.67;;;5.57;;
15876;SDS011;8037;51.666;7.834;2023-07-20T04:12:31;6.83;;;4.03;;
15876;SDS011;8037;51.666;7.834;2023-07-20T04:14:57;6.40;;;4.80;;
15876;SDS011;8037;51.666;7.834;2023-07-20T04:17:22;7.03;;;4.77;;
15876;SDS011;8037;51.666;7.834;2023-07-20T04:19:48;6.17;;;5.57;;
15876;SDS011;8037;51.666;7.834;2023-07-20T04:22:14;6.33;;;4.97;;
15876;SDS011;8037;51.666;7.834;2023-07-20T04:24:41;5.33;;;4.83;;
15876;SDS011;8037;51.666;7.834;2023-07-20T04:27:07;6.10;;;4.37;;
15876;SDS011;8037;51.666;7.834;2023-07-20T04:29:33;6.90;;;4.07;;
15876;SDS011;8037;51.666;7.834;2023-07-20T04:31:59;7.77;;;5.90;;
15876;SDS011;8037;51.666;7.834;2023-07-20T04:34:25;6.60;;;4.70;;
15876;SDS011;8037;51.666;7.834;2023-07-20T04:36:51;7.47;;;5.00;;
15876;SDS011;8037;51.666;7.834;2023-07-20T04:39:18;5.30;;;4.80;;
15876;SDS011;8037;51.666;7.834;2023-07-20T04:41:43;5.97;;;3.77;;
15876;SDS011;8037;51.666;7.834;2023-07-20T04:44:09;3.50;;;3.30;;
15876;SDS011;8037;51.666;7.834;2023-07-20T04:46:35;3.47;;;3.27;;
15876;SDS011;8037;51.666;7.834;2023-07-20T04:49:01;3.80;;;3.50;;
15876;SDS011;8037;51.666;7.834;2023-07-20T04:51:27;2.87;;;2.30;;
15876;SDS011;8037;51.666;7.834;2023-07-20T04:53:55;5.27;;;3.53;;
15876;SDS011;8037;51.666;7.834;2023-07-20T04:56:21;2.80;;;2.60;;
15876;SDS011;8037;51.666;7.834;2023-07-20T04:58:48;10.60;;;2.70;;
15876;SDS011;8037;51.666;7.834;2023-07-20T05:01:14;3.30;;;3.00;;
15876;SDS011;8037;51.666;7.834;2023-07-20T05:03:40;3.57;;;3.27;;
15876;SDS011;8037;51.666;7.834;2023-07-20T05:06:06;3.10;;;2.87;;
15876;SDS011;8037;51.666;7.834;2023-07-20T05:08:35;6.90;;;3.43;;
15876;SDS011;8037;51.666;7.834;2023-07-20T05:11:00;3.60;;;3.30;;
15876;SDS011;8037;51.666;7.834;2023-07-20T05:13:26;5.50;;;3.77;;
15876;SDS011;8037;51.666;7.834;2023-07-20T05:15:52;3.33;;;3.13;;
15876;SDS011;8037;51.666;7.834;2023-07-20T05:18:19;6.60;;;4.20;;
15876;SDS011;8037;51.666;7.834;2023-07-20T05:20:46;6.13;;;4.83;;
15876;SDS011;8037;51.666;7.834;2023-07-20T05:23:12;4.00;;;3.60;;
15876;SDS011;8037;51.666;7.834;2023-07-20T05:25:38;2.93;;;2.70;;
15876;SDS011;8037;51.666;7.834;2023-07-20T05:28:04;6.77;;;3.50;;
15876;SDS011;8037;51.666;7.834;2023-07-20T05:30:31;4.40;;;4.00;;
15876;SDS011;8037;51.666;7.834;2023-07-20T05:32:57;3.00;;;2.80;;
15876;SDS011;8037;51.666;7.834;2023-07-20T05:35:23;2.63;;;2.43;;
15876;SDS011;8037;51.666;7.834;2023-07-20T05:37:49;3.30;;;3.00;;
15876;SDS011;8037;51.666;7.834;2023-07-20T05:40:15;4.50;;;3.03;;
15876;SDS011;8037;51.666;7.834;2023-07-20T05:42:44;3.03;;;2.73;;
15876;SDS011;8037;51.666;7.834;2023-07-20T05:45:10;3.10;;;2.90;;
15876;SDS011;8037;51.666;7.834;2023-07-20T05:47:39;4.87;;;2.97;;
15876;SDS011;8037;51.666;7.834;2023-07-20T05:50:06;5.77;;;3.13;;
15876;SDS011;8037;51.666;7.834;2023-07-20T05:52:32;7.10;;;2.80;;
15876;SDS011;8037;51.666;7.834;2023-07-20T05:54:58;3.73;;;2.70;;
15876;SDS011;8037;51.666;7.834;2023-07-20T05:57:24;5.83;;;3.00;;
15876;SDS011;8037;51.666;7.834;2023-07-20T05:59:50;2.77;;;2.50;;
15876;SDS011;8037;51.666;7.834;2023-07-20T06:02:16;2.50;;;2.13;;
15876;SDS011;8037;51.666;7.834;2023-07-20T06:04:42;5.20;;;2.40;;
15876;SDS011;8037;51.666;7.834;2023-07-20T06:07:08;2.53;;;2.33;;
15876;SDS011;8037;51.666;7.834;2023-07-20T06:09:34;3.73;;;2.80;;
15876;SDS011;8037;51.666;7.834;2023-07-20T06:12:00;4.00;;;3.47;;
15876;SDS011;8037;51.666;7.834;2023-07-20T06:14:26;8.17;;;3.53;;
15876;SDS011;8037;51.666;7.834;2023-07-20T06:16:52;3.83;;;3.60;;
15876;SDS011;8037;51.666;7.834;2023-07-20T06:19:18;3.73;;;3.43;;
15876;SDS011;8037;51.666;7.834;2023-07-20T06:21:44;3.70;;;3.40;;
15876;SDS011;8037;51.666;7.834;2023-07-20T06:24:10;8.57;;;3.80;;
15876;SDS011;8037;51.666;7.834;2023-07-20T06:26:36;5.33;;;4.23;;
15876;SDS011;8037;51.666;7.834;2023-07-20T06:29:06;4.40;;;4.10;;
15876;SDS011;8037;51.666;7.834;2023-07-20T06:31:34;4.73;;;3.80;;
15876;SDS011;8037;51.666;7.834;2023-07-20T06:34:00;4.53;;;4.20;;
15876;SDS011;8037;51.666;7.834;2023-07-20T06:36:26;4.83;;;3.93;;
15876;SDS011;8037;51.666;7.834;2023-07-20T06:38:52;3.67;;;3.10;;
15876;SDS011;8037;51.666;7.834;2023-07-20T06:41:18;15.80;;;3.20;;
15876;SDS011;8037;51.666;7.834;2023-07-20T06:43:45;3.30;;;3.00;;
15876;SDS011;8037;51.666;7.834;2023-07-20T06:46:11;5.23;;;3.00;;
15876;SDS011;8037;51.666;7.834;2023-07-20T06:48:37;3.50;;;2.60;;
15876;SDS011;8037;51.666;7.834;2023-07-20T06:51:02;4.67;;;2.70;;
15876;SDS011;8037;51.666;7.834;2023-07-20T06:53:29;3.87;;;2.40;;
15876;SDS011;8037;51.666;7.834;2023-07-20T06:55:55;2.37;;;2.17;;
15876;SDS011;8037;51.666;7.834;2023-07-20T06:58:24;4.53;;;3.30;;
15876;SDS011;8037;51.666;7.834;2023-07-20T07:00:50;5.33;;;3.83;;
15876;SDS011;8037;51.666;7.834;2023-07-20T07:03:16;3.20;;;3.00;;
15876;SDS011;8037;51.666;7.834;2023-07-20T07:05:43;3.47;;;3.17;;
15876;SDS011;8037;51.666;7.834;2023-07-20T07:08:10;3.20;;;2.90;;
15876;SDS011;8037;51.666;7.834;2023-07-20T07:10:36;3.60;;;3.30;;
15876;SDS011;8037;51.666;7.834;2023-07-20T07:13:03;5.00;;;3.47;;
15876;SDS011;8037;51.666;7.834;2023-07-20T07:15:29;5.63;;;3.60;;
15876;SDS011;8037;51.666;7.834;2023-07-20T07:17:55;4.87;;;3.07;;
15876;SDS011;8037;51.666;7.834;2023-07-20T07:20:21;5.43;;;3.77;;
15876;SDS011;8037;51.666;7.834;2023-07-20T07:22:49;5.30;;;3.83;;
15876;SDS011;8037;51.666;7.834;2023-07-20T07:25:16;3.40;;;3.10;;
15876;SDS011;8037;51.666;7.834;2023-07-20T07:27:42;4.33;;;3.53;;
15876;SDS011;8037;51.666;7.834;2023-07-20T07:30:08;3.50;;;3.20;;
15876;SDS011;8037;51.666;7.834;2023-07-20T07:32:34;3.20;;;3.00;;
15876;SDS011;8037;51.666;7.834;2023-07-20T07:35:00;1.87;;;1.77;;
15876;SDS011;8037;51.666;7.834;2023-07-20T07:37:26;2.30;;;2.20;;
15876;SDS011;8037;51.666;7.834;2023-07-20T07:39:52;5.23;;;1.70;;
15876;SDS011;8037;51.666;7.834;2023-07-20T07:42:18;2.53;;;2.33;;
15876;SDS011;8037;51.666;7.834;2023-07-20T07:44:44;1.80;;;1.70;;
15876;SDS011;8037;51.666;7.834;2023-07-20T07:47:10;2.40;;;2.20;;
15876;SDS011;8037;51.666;7.834;2023-07-20T07:49:36;2.47;;;2.27;;
15876;SDS011;8037;51.666;7.834;2023-07-20T07:52:02;4.40;;;1.80;;
15876;SDS011;8037;51.666;7.834;2023-07-20T07:54:28;2.53;;;2.20;;
15876;SDS011;8037;51.666;7.834;2023-07-20T07:56:54;1.50;;;1.40;;
15876;SDS011;8037;51.666;7.834;2023-07-20T07:59:20;0.97;;;0.97;;
15876;SDS011;8037;51.666;7.834;2023-07-20T08:01:46;1.30;;;1.20;;
15876;SDS011;8037;51.666;7.834;2023-07-20T08:04:11;2.83;;;2.20;;
15876;SDS011;8037;51.666;7.834;2023-07-20T08:06:38;2.23;;;2.13;;
15876;SDS011;8037;51.666;7.834;2023-07-20T08:09:04;1.80;;;1.70;;
15876;SDS011;8037;51.666;7.834;2023-07-20T08:11:30;5.70;;;1.30;;
15876;SDS011;8037;51.666;7.834;2023-07-20T08:13:59;1.00;;;1.00;;
15876;SDS011;8037;51.666;7.834;2023-07-20T08:16:24;1.83;;;1.73;;
15876;SDS011;8037;51.666;7.834;2023-07-20T08:18:50;2.40;;;2.20;;
15876;SDS011;8037;51.666;7.834;2023-07-20T08:21:16;1.93;;;1.83;;
15876;SDS011;8037;51.666;7.834;2023-07-20T08:23:42;1.57;;;1.47;;
15876;SDS011;8037;51.666;7.834;2023-07-20T08:26:08;1.60;;;1.50;;
15876;SDS011;8037;51.666;7.834;2023-07-20T08:28:34;1.87;;;1.77;;
15876;SDS011;8037;51.666;7.834;2023-07-20T08:31:00;1.60;;;1.47;;
15876;SDS011;8037;51.666;7.834;2023-07-20T08:33:27;2.60;;;2.40;;
15876;SDS011;8037;51.666;7.834;2023-07-20T08:35:58;2.00;;;1.90;;
15876;SDS011;8037;51.666;7.834;2023-07-20T08:38:24;1.60;;;1.50;;
15876;SDS011;8037;51.666;7.834;2023-07-20T08:40:51;1.73;;;1.63;;
15876;SDS011;8037;51.666;7.834;2023-07-20T08:43:18;4.63;;;1.40;;
15876;SDS011;8037;51.666;7.834;2023-07-20T08:45:45;1.30;;;1.30;;
15876;SDS011;8037;51.666;7.834;2023-07-20T08:48:11;3.90;;;1.80;;
15876;SDS011;8037;51.666;7.834;2023-07-20T08:50:37;1.63;;;1.53;;
15876;SDS011;8037;51.666;7.834;2023-07-20T08:53:04;1.47;;;1.37;;
15876;SDS011;8037;51.666;7.834;2023-07-20T08:55:30;1.43;;;1.40;;
15876;SDS011;8037;51.666;7.834;2023-07-20T08:57:57;1.07;;;1.07;;
15876;SDS011;8037;51.666;7.834;2023-07-20T09:00:24;1.20;;;1.20;;
15876;SDS011;8037;51.666;7.834;2023-07-20T09:02:52;1.37;;;1.27;;
15876;SDS011;8037;51.666;7.834;2023-07-20T09:05:19;1.20;;;1.20;;
15876;SDS011;8037;51.666;7.834;2023-07-20T09:07:46;1.23;;;1.20;;
15876;SDS011;8037;51.666;7.834;2023-07-20T09:10:12;1.30;;;1.27;;
15876;SDS011;8037;51.666;7.834;2023-07-20T09:12:39;1.13;;;1.00;;
15876;SDS011;8037;51.666;7.834;2023-07-20T09:15:06;0.80;;;0.80;;
15876;SDS011;8037;51.666;7.834;2023-07-20T09:17:32;0.90;;;0.90;;
15876;SDS011;8037;51.666;7.834;2023-07-20T09:19:58;0.90;;;0.90;;
15876;SDS011;8037;51.666;7.834;2023-07-20T09:22:29;0.80;;;0.80;;
15876;SDS011;8037;51.666;7.834;2023-07-20T09:24:55;1.00;;;0.50;;
15876;SDS011;8037;51.666;7.834;2023-07-20T09:27:22;0.87;;;0.73;;
15876;SDS011;8037;51.666;7.834;2023-07-20T09:29:48;0.83;;;0.60;;
15876;SDS011;8037;51.666;7.834;2023-07-20T09:32:17;4.10;;;0.83;;
15876;SDS011;8037;51.666;7.834;2023-07-20T09:34:45;1.10;;;1.10;;
15876;SDS011;8037;51.666;7.834;2023-07-20T09:37:11;1.30;;;1.03;;
15876;SDS011;8037;51.666;7.834;2023-07-20T09:39:44;4.63;;;0.80;;
15876;SDS011;8037;51.666;7.834;2023-07-20T09:42:11;1.00;;;0.90;;
15876;SDS011;8037;51.666;7.834;2023-07-20T09:44:38;2.20;;;0.90;;
15876;SDS011;8037;51.666;7.834;2023-07-20T09:47:04;0.60;;;0.57;;
15876;SDS011;8037;51.666;7.834;2023-07-20T09:49:30;1.67;;;1.23;;
15876;SDS011;8037;51.666;7.834;2023-07-20T09:51:59;1.17;;;0.83;;
15876;SDS011;8037;51.666;7.834;2023-07-20T09:54:27;2.73;;;0.60;;
15876;SDS011;8037;51.666;7.834;2023-07-20T09:56:54;3.13;;;0.90;;
15876;SDS011;8037;51.666;7.834;2023-07-20T09:59:21;0.70;;;0.70;;
15876;SDS011;8037;51.666;7.834;2023-07-20T10:01:47;1.03;;;1.03;;
15876;SDS011;8037;51.666;7.834;2023-07-20T10:04:14;1.90;;;0.50;;
15876;SDS011;8037;51.666;7.834;2023-07-20T10:06:43;20.03;;;0.80;;
15876;SDS011;8037;51.666;7.834;2023-07-20T10:09:12;2.53;;;0.50;;
15876;SDS011;8037;51.666;7.834;2023-07-20T10:11:40;7.03;;;0.67;;
15876;SDS011;8037;51.666;7.834;2023-07-20T10:14:13;0.50;;;0.47;;
15876;SDS011;8037;51.666;7.834;2023-07-20T10:16:43;0.83;;;0.70;;
15876;SDS011;8037;51.666;7.834;2023-07-20T10:19:17;0.90;;;0.57;;
15876;SDS011;8037;51.666;7.834;2023-07-20T10:21:51;0.60;;;0.50;;
15876;SDS011;8037;51.666;7.834;2023-07-20T10:24:22;4.87;;;1.00;;
15876;SDS011;8037;51.666;7.834;2023-07-20T10:26:49;0.70;;;0.70;;
15876;SDS011;8037;51.666;7.834;2023-07-20T10:29:16;0.90;;;0.73;;
15876;SDS011;8037;51.666;7.834;2023-07-20T10:31:42;0.70;;;0.60;;
15876;SDS011;8037;51.666;7.834;2023-07-20T10:34:08;0.70;;;0.40;;
15876;SDS011;8037;51.666;7.834;2023-07-20T10:36:35;0.50;;;0.50;;
15876;SDS011;8037;51.666;7.834;2023-07-20T10:39:27;0.87;;;0.60;;
15876;SDS011;8037;51.666;7.834;2023-07-20T10:42:02;1.73;;;0.40;;
15876;SDS011;8037;51.666;7.834;2023-07-20T10:44:31;2.30;;;0.70;;
15876;SDS011;8037;51.666;7.834;2023-07-20T10:47:01;0.60;;;0.40;;
15876;SDS011;8037;51.666;7.834;2023-07-20T10:49:27;0.67;;;0.67;;
15876;SDS011;8037;51.666;7.834;2023-07-20T10:51:57;1.17;;;0.70;;
15876;SDS011;8037;51.666;7.834;2023-07-20T10:56:52;0.80;;;0.60;;
15876;SDS011;8037;51.666;7.834;2023-07-20T11:01:58;0.90;;;0.70;;
15876;SDS011;8037;51.666;7.834;2023-07-20T11:04:39;5.40;;;4.80;;
15876;SDS011;8037;51.666;7.834;2023-07-20T11:07:08;5.00;;;1.60;;
15876;SDS011;8037;51.666;7.834;2023-07-20T11:09:34;5.90;;;3.20;;
15876;SDS011;8037;51.666;7.834;2023-07-20T11:12:10;16.13;;;14.70;;
15876;SDS011;8037;51.666;7.834;2023-07-20T11:14:41;1.87;;;1.13;;
15876;SDS011;8037;51.666;7.834;2023-07-20T11:17:10;1.10;;;1.10;;
15876;SDS011;8037;51.666;7.834;2023-07-20T11:19:38;1.30;;;1.20;;
15876;SDS011;8037;51.666;7.834;2023-07-20T11:22:05;1.33;;;1.10;;
15876;SDS011;8037;51.666;7.834;2023-07-20T11:24:38;1.57;;;1.47;;
15876;SDS011;8037;51.666;7.834;2023-07-20T11:27:04;0.50;;;0.50;;
15876;SDS011;8037;51.666;7.834;2023-07-20T11:29:30;1.27;;;0.70;;
15876;SDS011;8037;51.666;7.834;2023-07-20T11:31:56;0.60;;;0.60;;
15876;SDS011;8037;51.666;7.834;2023-07-20T11:34:23;3.07;;;0.80;;
15876;SDS011;8037;51.666;7.834;2023-07-20T11:36:50;2.43;;;1.00;;
15876;SDS011;8037;51.666;7.834;2023-07-20T11:39:17;0.63;;;0.63;;
15876;SDS011;8037;51.666;7.834;2023-07-20T11:41:50;1.43;;;0.93;;
15876;SDS011;8037;51.666;7.834;2023-07-20T11:44:17;0.80;;;0.73;;
15876;SDS011;8037;51.666;7.834;2023-07-20T11:46:43;0.90;;;0.70;;
15876;SDS011;8037;51.666;7.834;2023-07-20T11:49:09;4.40;;;0.63;;
15876;SDS011;8037;51.666;7.834;2023-07-20T11:51:36;1.17;;;0.90;;
15876;SDS011;8037;51.666;7.834;2023-07-20T11:54:03;3.43;;;0.77;;
15876;SDS011;8037;51.666;7.834;2023-07-20T11:56:29;0.83;;;0.70;;
15876;SDS011;8037;51.666;7.834;2023-07-20T11:58:56;0.67;;;0.67;;
15876;SDS011;8037;51.666;7.834;2023-07-20T12:01:24;0.60;;;0.60;;
15876;SDS011;8037;51.666;7.834;2023-07-20T12:03:54;1.10;;;0.60;;
15876;SDS011;8037;51.666;7.834;2023-07-20T12:06:22;4.10;;;0.57;;
15876;SDS011;8037;51.666;7.834;2023-07-20T12:08:49;0.57;;;0.57;;
15876;SDS011;8037;51.666;7.834;2023-07-20T12:11:29;1.57;;;0.80;;
15876;SDS011;8037;51.666;7.834;2023-07-20T12:14:08;0.63;;;0.63;;
15876;SDS011;8037;51.666;7.834;2023-07-20T12:16:34;0.60;;;0.60;;
15876;SDS011;8037;51.666;7.834;2023-07-20T12:19:02;0.50;;;0.50;;
15876;SDS011;8037;51.666;7.834;2023-07-20T12:21:29;0.47;;;0.37;;
15876;SDS011;8037;51.666;7.834;2023-07-20T12:23:59;0.53;;;0.53;;
15876;SDS011;8037;51.666;7.834;2023-07-20T12:26:25;0.80;;;0.60;;
15876;SDS011;8037;51.666;7.834;2023-07-20T12:28:54;0.70;;;0.67;;
15876;SDS011;8037;51.666;7.834;2023-07-20T12:31:20;1.87;;;0.70;;
15876;SDS011;8037;51.666;7.834;2023-07-20T12:33:47;0.50;;;0.50;;
15876;SDS011;8037;51.666;7.834;2023-07-20T12:36:14;0.90;;;0.70;;
15876;SDS011;8037;51.666;7.834;2023-07-20T12:38:40;0.90;;;0.50;;
15876;SDS011;8037;51.666;7.834;2023-07-20T12:41:07;0.60;;;0.50;;
15876;SDS011;8037;51.666;7.834;2023-07-20T12:43:33;1.23;;;0.60;;
15876;SDS011;8037;51.666;7.834;2023-07-20T12:45:59;1.23;;;0.50;;
15876;SDS011;8037;51.666;7.834;2023-07-20T12:48:25;2.00;;;0.80;;
15876;SDS011;8037;51.666;7.834;2023-07-20T12:50:51;1.50;;;0.77;;
15876;SDS011;8037;51.666;7.834;2023-07-20T12:53:17;0.70;;;0.50;;
15876;SDS011;8037;51.666;7.834;2023-07-20T12:55:43;0.60;;;0.50;;
15876;SDS011;8037;51.666;7.834;2023-07-20T12:58:09;2.33;;;2.13;;
15876;SDS011;8037;51.666;7.834;2023-07-20T13:00:35;0.80;;;0.80;;
15876;SDS011;8037;51.666;7.834;2023-07-20T13:03:01;1.20;;;1.20;;
15876;SDS011;8037;51.666;7.834;2023-07-20T13:05:31;0.50;;;0.40;;
15876;SDS011;8037;51.666;7.834;2023-07-20T13:07:58;1.13;;;1.13;;
15876;SDS011;8037;51.666;7.834;2023-07-20T13:10:23;0.80;;;0.70;;
15876;SDS011;8037;51.666;7.834;2023-07-20T13:12:49;0.50;;;0.50;;
15876;SDS011;8037;51.666;7.834;2023-07-20T13:15:16;3.13;;;0.93;;
15876;SDS011;8037;51.666;7.834;2023-07-20T13:17:42;1.03;;;0.60;;
15876;SDS011;8037;51.666;7.834;2023-07-20T13:20:08;0.50;;;0.50;;
15876;SDS011;8037;51.666;7.834;2023-07-20T13:22:36;1.13;;;0.80;;
15876;SDS011;8037;51.666;7.834;2023-07-20T13:25:05;0.83;;;0.70;;
15876;SDS011;8037;51.666;7.834;2023-07-20T13:27:31;0.97;;;0.50;;
15876;SDS011;8037;51.666;7.834;2023-07-20T13:30:00;0.50;;;0.43;;
15876;SDS011;8037;51.666;7.834;2023-07-20T13:32:26;1.10;;;0.40;;
15876;SDS011;8037;51.666;7.834;2023-07-20T13:34:53;0.50;;;0.40;;
15876;SDS011;8037;51.666;7.834;2023-07-20T13:37:19;0.80;;;0.80;;
15876;SDS011;8037;51.666;7.834;2023-07-20T13:39:45;0.53;;;0.53;;
15876;SDS011;8037;51.666;7.834;2023-07-20T13:42:11;0.50;;;0.40;;
15876;SDS011;8037;51.666;7.834;2023-07-20T13:44:37;0.50;;;0.50;;
15876;SDS011;8037;51.666;7.834;2023-07-20T13:47:06;1.40;;;0.30;;
15876;SDS011;8037;51.666;7.834;2023-07-20T13:49:31;1.70;;;0.57;;
15876;SDS011;8037;51.666;7.834;2023-07-20T13:51:57;0.73;;;0.70;;
15876;SDS011;8037;51.666;7.834;2023-07-20T13:54:24;0.40;;;0.40;;
15876;SDS011;8037;51.666;7.834;2023-07-20T13:56:50;0.67;;;0.67;;
15876;SDS011;8037;51.666;7.834;2023-07-20T13:59:16;0.63;;;0.63;;
15876;SDS011;8037;51.666;7.834;2023-07-20T14:01:45;0.70;;;0.70;;
15876;SDS011;8037;51.666;7.834;2023-07-20T14:04:12;1.33;;;0.57;;
15876;SDS011;8037;51.666;7.834;2023-07-20T14:06:37;0.50;;;0.33;;
15876;SDS011;8037;51.666;7.834;2023-07-20T14:09:03;0.70;;;0.67;;
15876;SDS011;8037;51.666;7.834;2023-07-20T14:11:29;0.80;;;0.80;;
15876;SDS011;8037;51.666;7.834;2023-07-20T14:13:55;0.53;;;0.53;;
15876;SDS011;8037;51.666;7.834;2023-07-20T14:16:23;1.00;;;0.70;;
15876;SDS011;8037;51.666;7.834;2023-07-20T14:18:49;0.73;;;0.60;;
15876;SDS011;8037;51.666;7.834;2023-07-20T14:21:16;0.50;;;0.40;;
15876;SDS011;8037;51.666;7.834;2023-07-20T14:23:44;0.50;;;0.50;;
15876;SDS011;8037;51.666;7.834;2023-07-20T14:26:14;0.60;;;0.50;;
15876;SDS011;8037;51.666;7.834;2023-07-20T14:28:40;0.73;;;0.73;;
15876;SDS011;8037;51.666;7.834;2023-07-20T14:31:06;0.60;;;0.60;;
15876;SDS011;8037;51.666;7.834;2023-07-20T14:33:33;2.10;;;0.50;;
15876;SDS011;8037;51.666;7.834;2023-07-20T14:35:59;0.50;;;0.40;;
15876;SDS011;8037;51.666;7.834;2023-07-20T14:38:26;0.70;;;0.70;;
15876;SDS011;8037;51.666;7.834;2023-07-20T14:40:53;7.33;;;0.50;;
15876;SDS011;8037;51.666;7.834;2023-07-20T14:43:19;1.60;;;0.50;;
15876;SDS011;8037;51.666;7.834;2023-07-20T14:45:45;0.53;;;0.53;;
15876;SDS011;8037;51.666;7.834;2023-07-20T14:48:11;0.80;;;0.70;;
15876;SDS011;8037;51.666;7.834;2023-07-20T14:50:36;7.03;;;0.40;;
15876;SDS011;8037;51.666;7.834;2023-07-20T14:53:02;0.50;;;0.50;;
15876;SDS011;8037;51.666;7.834;2023-07-20T14:55:28;0.60;;;0.60;;
15876;SDS011;8037;51.666;7.834;2023-07-20T14:57:54;0.87;;;0.47;;
15876;SDS011;8037;51.666;7.834;2023-07-20T15:00:20;0.50;;;0.50;;
15876;SDS011;8037;51.666;7.834;2023-07-20T15:02:46;0.70;;;0.60;;
15876;SDS011;8037;51.666;7.834;2023-07-20T15:05:12;0.53;;;0.53;;
15876;SDS011;8037;51.666;7.834;2023-07-20T15:07:46;0.80;;;0.63;;
15876;SDS011;8037;51.666;7.834;2023-07-20T15:10:12;1.47;;;0.60;;
15876;SDS011;8037;51.666;7.834;2023-07-20T15:12:38;0.53;;;0.50;;
15876;SDS011;8037;51.666;7.834;2023-07-20T15:15:05;0.50;;;0.50;;